Time;durP1;ratioP1;P1;durP2;ratioP2;P2;SDS_P1;SDS_P2;PMS_P1;PMS_P2;Temp;Humidity;BMP_temperature;BMP_pressure;BME280_temperature;BME280_humidity;BME280_pressure;Samples;Min_cycle;Max_cycle;Signal;HPM_P1;HPM_P2
2020/12/07 00:08:12;;;;;;;;;;;;;;;;;;;;;
2020/12/07 00:16:56;;;;;;;78.68;37.25;;;3.90;99.90;;;;;;4130927;27;20915;31
2020/12/07 00:32:15;;;;;;;76.05;36.15;;;4.00;99.90;;;;;;4147633;34;20082;-85
2020/12/07 00:34:42;;;;;;;67.35;34.50;;;4.00;99.90;;;;;;4136086;34;20026;-84
2020/12/07 00:44:35;;;;;;;61.08;32.22;;;4.00;99.90;;;;;;4143350;27;20134;-84
2020/12/07 01:00:09;;;;;;;45.88;27.35;;;4.00;99.90;;;;;;4143445;34;20088;-87
2020/12/07 01:05:07;;;;;;;47.28;29.52;;;4.00;99.90;;;;;;4116746;35;20032;-87
2020/12/07 01:07:33;;;;;;;46.35;28.20;;;4.00;99.90;;;;;;4102859;35;20123;-86
2020/12/07 01:21:55;;;;;;;57.83;34.03;;;4.00;99.90;;;;;;4057010;34;20466;31
2020/12/07 01:32:20;;;;;;;56.28;33.10;;;4.00;99.90;;;;;;4256166;27;20063;-85
2020/12/07 01:34:48;;;;;;;60.95;33.55;;;4.00;99.90;;;;;;4237875;27;20027;-86
2020/12/07 01:37:14;;;;;;;58.10;33.33;;;4.00;99.90;;;;;;4122433;35;20082;-87
2020/12/07 01:39:40;;;;;;;57.78;35.53;;;3.90;99.90;;;;;;4207168;27;20031;-86
2020/12/07 01:44:38;;;;;;;59.30;34.03;;;4.00;99.90;;;;;;4255147;27;20075;-86
2020/12/07 01:47:30;;;;;;;56.97;34.58;;;4.00;99.90;;;;;;4131489;35;20180;-86
2020/12/07 02:02:53;;;;;;;53.30;32.78;;;3.90;99.90;;;;;;4107564;35;20099;-88
2020/12/07 02:05:34;;;;;;;59.30;31.08;;;4.00;99.90;;;;;;4095060;35;20012;-86
2020/12/07 02:10:33;;;;;;;62.80;33.63;;;3.90;99.90;;;;;;4246660;27;20031;-83
2020/12/07 02:12:59;;;;;;;60.67;34.55;;;3.90;99.90;;;;;;4122219;35;20074;-85
2020/12/07 02:15:24;;;;;;;61.25;33.58;;;4.00;99.90;;;;;;4122175;35;20028;-85
2020/12/07 02:17:50;;;;;;;64.32;32.45;;;4.00;99.90;;;;;;4122329;35;20029;-84
2020/12/07 02:20:16;;;;;;;56.80;31.20;;;3.90;99.90;;;;;;4122381;35;20012;-84
2020/12/07 02:25:09;;;;;;;54.80;30.75;;;4.00;99.90;;;;;;4246805;27;20042;-85
2020/12/07 02:27:43;;;;;;;60.03;33.15;;;3.90;99.90;;;;;;4122563;35;20020;-87
2020/12/07 02:33:04;;;;;;;53.95;30.38;;;3.90;99.90;;;;;;4068463;34;20168;31
2020/12/07 02:38:34;;;;;;;54.88;30.92;;;3.90;99.90;;;;;;4107442;27;21476;31
2020/12/07 02:41:05;;;;;;;60.40;32.35;;;3.90;99.90;;;;;;4105336;27;20736;31
2020/12/07 02:49:00;;;;;;;58.38;32.72;;;3.80;99.90;;;;;;4094421;27;20516;31
2020/12/07 03:04:06;;;;;;;60.00;32.00;;;3.80;99.90;;;;;;4073232;34;20361;31
2020/12/07 03:09:38;;;;;;;;;;;;;;;;;;;;;
2020/12/07 03:12:29;;;;;;;66.45;33.40;;;3.80;99.90;;;;;;4070300;27;22112;31
2020/12/07 03:17:49;;;;;;;67.57;33.28;;;3.80;99.90;;;;;;4108641;26;21362;31
2020/12/07 03:30:57;;;;;;;67.70;35.95;;;3.70;99.90;;;;;;5099246;27;20383;-96
2020/12/07 03:33:23;;;;;;;66.93;35.03;;;3.70;99.90;;;;;;5096402;28;20032;-96
2020/12/07 03:36:09;;;;;;;;;;;;;;;;;;;;;
2020/12/07 03:38:41;;;;;;;71.18;32.13;;;3.70;99.90;;;;;;5068247;28;20049;-96
2020/12/07 03:41:18;;;;;;;;;;;;;;;;;;;;;
2020/12/07 03:43:57;;;;;;;;;;;;;;;;;;;;;
2020/12/07 03:46:38;;;;;;;;;;;;;;;;;;;;;
2020/12/07 03:51:46;;;;;;;67.15;34.60;;;3.70;99.90;;;;;;5294094;23;20063;-96
2020/12/07 03:54:12;;;;;;;68.50;35.08;;;3.70;99.90;;;;;;5073499;28;20053;-94
2020/12/07 03:56:41;;;;;;;68.72;35.58;;;3.70;99.90;;;;;;5042021;28;20068;-94
2020/12/07 03:59:07;;;;;;;70.45;34.20;;;3.70;99.90;;;;;;5033939;28;20435;-93
2020/12/07 04:01:33;;;;;;;72.03;36.13;;;3.70;99.90;;;;;;5038315;28;20032;-94
2020/12/07 04:04:05;;;;;;;73.30;36.42;;;3.70;99.90;;;;;;5019794;28;20032;-96
2020/12/07 04:06:35;;;;;;;73.10;36.40;;;3.70;99.90;;;;;;5018577;28;20034;-96
2020/12/07 04:09:00;;;;;;;69.50;35.30;;;3.70;99.90;;;;;;5057812;28;20057;-94
2020/12/07 04:11:27;;;;;;;65.88;33.40;;;3.70;99.90;;;;;;5040132;28;20028;-96
2020/12/07 04:13:53;;;;;;;63.70;32.95;;;3.70;99.90;;;;;;5021263;28;20548;-95
2020/12/07 04:16:18;;;;;;;74.75;35.97;;;3.70;99.90;;;;;;5039674;28;20028;-95
2020/12/07 04:18:44;;;;;;;72.68;36.60;;;3.80;99.90;;;;;;5041692;28;20084;-94
2020/12/07 04:21:12;;;;;;;64.38;35.30;;;3.70;99.90;;;;;;5039858;28;20091;-95
2020/12/07 04:23:38;;;;;;;69.10;36.22;;;3.80;99.90;;;;;;5040074;28;20009;-95
2020/12/07 04:26:04;;;;;;;72.47;34.15;;;3.80;99.90;;;;;;5046195;28;20029;-95
2020/12/07 04:28:30;;;;;;;71.50;35.28;;;3.80;99.90;;;;;;5038110;28;20029;-96
2020/12/07 04:54:26;;;;;;;62.05;32.38;;;3.80;99.90;;;;;;5536352;23;20383;-96
2020/12/07 04:57:00;;;;;;;63.38;32.38;;;3.80;99.90;;;;;;5030909;28;20044;-96
2020/12/07 05:11:29;;;;;;;55.22;32.25;;;3.80;99.90;;;;;;5665897;23;20033;-96
2020/12/07 05:21:41;;;;;;;66.80;34.75;;;3.80;99.90;;;;;;5365414;23;20122;-94
2020/12/07 05:24:07;;;;;;;64.78;33.05;;;3.90;99.90;;;;;;5038724;28;20014;-96
2020/12/07 05:32:00;;;;;;;63.25;33.55;;;3.90;99.90;;;;;;6002560;23;20047;-86
2020/12/07 05:40:41;;;;;;;;;;;3.90;99.90;;;;;;4904614;29;20013;-96
2020/12/07 05:46:29;;;;;;;62.20;34.00;;;3.90;99.90;;;;;;5692479;23;20057;-96
2020/12/07 06:17:38;;;;;;;57.95;30.58;;;3.90;99.90;;;;;;5259028;23;20088;-96
2020/12/07 06:20:07;;;;;;;53.15;28.60;;;3.80;99.90;;;;;;5032450;28;20057;-95
2020/12/07 06:22:34;;;;;;;64.07;30.27;;;4.00;99.90;;;;;;5012432;28;20025;-95
2020/12/07 06:25:04;;;;;;;55.55;29.85;;;3.90;99.90;;;;;;5031515;28;20018;-96
2020/12/07 06:27:49;;;;;;;53.63;28.42;;;3.80;99.90;;;;;;5034107;28;20009;-96
2020/12/07 06:30:18;;;;;;;57.17;29.75;;;3.90;99.90;;;;;;5214124;23;20097;-94
2020/12/07 06:32:52;;;;;;;61.67;30.25;;;3.90;99.90;;;;;;5038514;28;20037;-96
2020/12/07 06:35:20;;;;;;;55.00;28.13;;;3.90;99.90;;;;;;5009491;28;20034;-95
2020/12/07 06:37:55;;;;;;;55.25;29.27;;;3.90;99.90;;;;;;4990039;28;20054;-96
2020/12/07 06:40:38;;;;;;;51.95;27.42;;;3.90;99.90;;;;;;5006649;28;20094;-96
2020/12/07 06:43:26;;;;;;;58.38;29.63;;;3.90;99.90;;;;;;4987664;28;20034;-96
2020/12/07 06:45:54;;;;;;;51.47;27.60;;;3.90;99.90;;;;;;4990713;28;20031;-96
2020/12/07 06:48:26;;;;;;;58.17;29.33;;;3.90;99.90;;;;;;5144410;23;20075;-94
2020/12/07 06:51:11;;;;;;;;;;;;;;;;;;;;;
2020/12/07 06:53:46;;;;;;;53.25;28.25;;;3.90;99.90;;;;;;5018122;28;20014;-96
2020/12/07 07:02:22;;;;;;;64.00;31.20;;;3.90;99.90;;;;;;5266671;23;20145;-96
2020/12/07 07:05:29;;;;;;;;;;;;;;;;;;;;;
2020/12/07 07:08:03;;;;;;;58.42;29.48;;;3.90;99.90;;;;;;5116558;23;20072;-90
2020/12/07 07:10:32;;;;;;;61.80;30.40;;;3.90;99.90;;;;;;5042779;28;20060;-91
2020/12/07 07:13:04;;;;;;;60.53;32.42;;;4.10;99.90;;;;;;5056128;28;20021;-90
2020/12/07 07:15:34;;;;;;;61.92;32.50;;;4.00;99.90;;;;;;5054974;28;20028;-88
2020/12/07 07:18:03;;;;;;;56.03;30.98;;;4.00;99.90;;;;;;5034392;28;20080;-90
2020/12/07 07:20:30;;;;;;;61.80;29.75;;;4.00;99.90;;;;;;5034502;28;20037;-90
2020/12/07 07:23:00;;;;;;;50.85;28.42;;;4.00;99.90;;;;;;5008986;28;20076;-89
2020/12/07 07:25:40;;;;;;;50.38;27.23;;;4.00;99.90;;;;;;5036004;28;20053;-91
2020/12/07 07:28:10;;;;;;;62.40;29.60;;;4.00;99.90;;;;;;5053883;28;20055;-91
2020/12/07 07:30:36;;;;;;;52.92;29.15;;;4.00;99.90;;;;;;5018074;28;20064;-91
2020/12/07 07:33:03;;;;;;;54.70;28.00;;;4.00;99.90;;;;;;5037321;28;20112;-94
2020/12/07 07:35:31;;;;;;;60.33;30.80;;;4.00;99.90;;;;;;5055037;28;20101;-93
2020/12/07 07:37:58;;;;;;;51.30;24.85;;;4.00;99.90;;;;;;5055387;28;20018;-94
2020/12/07 07:40:30;;;;;;;47.90;25.73;;;4.00;99.90;;;;;;5078167;23;20041;-91
2020/12/07 07:43:02;;;;;;;45.28;24.60;;;4.00;99.90;;;;;;5039207;28;20098;-94
2020/12/07 07:45:54;;;;;;;47.10;23.73;;;4.10;99.90;;;;;;5055138;28;20006;-92
2020/12/07 07:52:09;;;;;;;39.97;20.70;;;4.10;99.90;;;;;;4995227;28;20057;-90
2020/12/07 08:43:34;;;;;;;44.45;25.45;;;4.40;99.90;;;;;;5015492;28;20057;-91
2020/12/07 08:46:16;;;;;;;31.40;17.63;;;4.50;99.90;;;;;;4983113;28;20090;-90
2020/12/07 08:48:46;;;;;;;26.73;15.35;;;4.50;99.90;;;;;;5011290;28;20038;-90
2020/12/07 08:51:12;;;;;;;30.55;17.00;;;4.50;99.90;;;;;;4994844;28;20122;-90
2020/12/07 08:53:51;;;;;;;26.15;15.02;;;4.50;99.90;;;;;;5017220;28;20026;-90
2020/12/07 08:56:20;;;;;;;28.33;15.60;;;4.50;99.90;;;;;;4986722;28;20026;-90
2020/12/07 08:58:47;;;;;;;26.77;14.70;;;4.50;99.90;;;;;;4993431;28;20121;-91
2020/12/07 09:43:26;;;;;;;23.33;8.75;;;4.90;99.90;;;;;;6073362;23;20029;-88
2020/12/07 09:45:52;;;;;;;12.60;7.05;;;4.90;99.90;;;;;;5018331;28;20053;-89
2020/12/07 09:48:18;;;;;;;16.67;9.60;;;4.90;99.90;;;;;;5020373;28;20030;-88
2020/12/07 09:50:44;;;;;;;12.32;7.75;;;4.90;99.90;;;;;;5023491;28;20059;-88
2020/12/07 09:53:15;;;;;;;14.85;6.97;;;5.00;99.90;;;;;;5030226;28;20398;-90
2020/12/07 12:46:16;;;;;;;17.42;10.48;;;6.00;99.90;;;;;;5907399;23;20021;-90
2020/12/07 12:48:46;;;;;;;19.98;11.43;;;6.00;99.90;;;;;;4937394;29;20046;-91
2020/12/07 12:51:46;;;;;;;;;;;;;;;;;;;;;
2020/12/07 12:54:07;;;;;;;21.15;11.32;;;6.00;99.90;;;;;;4956813;28;20036;-91
2020/12/07 12:56:35;;;;;;;19.00;10.73;;;6.00;99.90;;;;;;4957942;29;20023;-90
2020/12/07 13:02:27;;;;;;;20.83;10.73;;;6.10;99.90;;;;;;4898400;29;20033;-91
2020/12/07 13:06:33;;;;;;;15.43;9.55;;;6.10;99.90;;;;;;4900386;29;20044;-90
2020/12/07 13:08:53;;;;;;;18.88;10.38;;;6.20;99.90;;;;;;4799661;29;20110;-89
2020/12/07 13:11:37;;;;;;;16.17;8.68;;;6.20;99.90;;;;;;4779913;30;20028;-90
2020/12/07 13:14:13;;;;;;;16.25;9.43;;;6.20;99.90;;;;;;4776356;29;20039;-90
2020/12/07 13:17:00;;;;;;;15.95;9.93;;;6.20;99.90;;;;;;4800266;29;20142;-91
2020/12/07 13:19:26;;;;;;;14.95;9.07;;;6.20;99.90;;;;;;4767565;29;20044;-90
2020/12/07 13:31:41;;;;;;;15.90;9.63;;;6.20;99.90;;;;;;4800143;29;20131;-90
2020/12/07 13:34:16;;;;;;;19.85;9.63;;;6.20;99.90;;;;;;4800468;29;20103;-89
2020/12/07 13:40:18;;;;;;;;;;;6.30;99.90;;;;;;4810326;29;20077;-91
2020/12/07 13:42:46;;;;;;;26.08;12.63;;;6.40;99.90;;;;;;4797009;29;19910;-91
2020/12/07 13:45:45;;;;;;;23.48;13.60;;;6.40;99.90;;;;;;4826263;29;20041;-92
2020/12/07 13:48:19;;;;;;;19.50;11.50;;;6.40;99.90;;;;;;4873444;29;20045;-92
2020/12/07 13:50:49;;;;;;;19.65;12.20;;;6.30;99.90;;;;;;4854519;29;20037;-92
2020/12/07 13:53:15;;;;;;;21.27;12.50;;;6.30;99.90;;;;;;4894678;29;20578;-89
2020/12/07 13:55:46;;;;;;;23.08;12.18;;;6.40;99.90;;;;;;4912520;29;20039;-92
2020/12/07 13:58:22;;;;;;;;;;;6.40;99.90;;;;;;4943487;29;20092;-90
2020/12/07 14:00:56;;;;;;;23.27;12.77;;;6.30;99.90;;;;;;4924936;29;20408;-94
2020/12/07 14:03:31;;;;;;;21.23;12.02;;;6.30;99.90;;;;;;4926259;29;20350;-89
2020/12/07 14:06:26;;;;;;;20.10;12.35;;;6.40;99.90;;;;;;4926567;29;20112;-89
2020/12/07 14:08:58;;;;;;;25.35;13.63;;;6.40;99.90;;;;;;4935269;28;20049;-91
2020/12/07 14:11:29;;;;;;;20.45;11.48;;;6.30;99.90;;;;;;4940545;28;20050;-90
2020/12/07 14:13:56;;;;;;;20.65;11.60;;;6.30;99.90;;;;;;4915427;29;20061;-89
2020/12/07 17:56:57;;;;;;;15.73;7.75;;;3.90;99.90;;;;;;4966795;28;20061;-94
2020/12/07 17:59:25;;;;;;;15.00;8.40;;;3.90;99.90;;;;;;4959216;28;20043;-88
2020/12/07 18:01:53;;;;;;;13.27;7.50;;;3.90;99.90;;;;;;4950903;29;20118;-91
2020/12/07 18:04:29;;;;;;;15.98;7.97;;;3.90;99.90;;;;;;4938230;29;20298;-91
2020/12/07 18:07:00;;;;;;;11.65;7.47;;;3.90;99.90;;;;;;4919562;29;20069;-93
2020/12/07 18:09:31;;;;;;;12.45;7.55;;;3.90;99.90;;;;;;4927237;29;20033;-92
2020/12/07 18:12:09;;;;;;;12.52;7.30;;;3.90;99.90;;;;;;4911028;29;20191;-91
2020/12/07 18:14:36;;;;;;;12.63;7.78;;;3.90;99.90;;;;;;4891320;29;20048;-89
2020/12/07 18:17:02;;;;;;;12.30;6.93;;;3.80;99.90;;;;;;4892014;29;20052;-89
2020/12/07 18:19:28;;;;;;;16.38;8.27;;;3.90;99.90;;;;;;4900579;29;20055;-89
2020/12/07 18:21:55;;;;;;;11.23;7.57;;;3.90;99.90;;;;;;4909204;29;20385;-92
2020/12/07 18:24:21;;;;;;;14.98;7.90;;;3.80;99.90;;;;;;4901570;29;20043;-90
2020/12/07 18:26:49;;;;;;;11.40;7.30;;;3.90;99.90;;;;;;4909336;29;20035;-91
2020/12/07 18:29:16;;;;;;;13.70;8.73;;;3.90;99.90;;;;;;4903592;29;20112;-91
2020/12/07 18:31:45;;;;;;;15.43;10.20;;;3.80;99.90;;;;;;4903314;29;20366;-88
2020/12/07 18:34:15;;;;;;;14.13;7.90;;;3.80;99.90;;;;;;4920532;29;20039;-89
2020/12/07 18:36:45;;;;;;;15.00;8.55;;;3.80;99.90;;;;;;4920858;29;20026;-87
2020/12/07 18:39:35;;;;;;;14.50;8.50;;;3.80;99.90;;;;;;4936067;29;20060;-88
2020/12/07 18:42:02;;;;;;;14.00;8.27;;;3.70;99.90;;;;;;4963850;28;20031;-89
2020/12/07 18:44:28;;;;;;;11.80;7.90;;;3.70;99.90;;;;;;4961732;28;20022;-88
2020/12/07 18:46:55;;;;;;;17.13;10.00;;;3.90;99.90;;;;;;5108139;23;20043;-88
2020/12/07 18:49:22;;;;;;;12.90;8.77;;;3.70;99.90;;;;;;5282162;23;21303;-85
2020/12/07 18:54:48;;;;;;;15.07;8.90;;;3.50;99.90;;;;;;5307718;23;20039;-87
2020/12/07 18:57:14;;;;;;;17.48;10.43;;;3.30;99.90;;;;;;5068433;23;20058;-88
2020/12/07 19:09:10;;;;;;;15.75;9.20;;;3.30;99.90;;;;;;4977071;23;20079;-89
2020/12/07 19:11:36;;;;;;;15.43;9.88;;;3.20;99.90;;;;;;4936842;28;20023;-89
2020/12/07 19:14:49;;;;;;;22.40;11.15;;;3.20;99.90;;;;;;5010032;23;20058;-89
2020/12/07 19:17:45;;;;;;;15.45;9.50;;;3.10;99.90;;;;;;4935906;28;20060;-89
2020/12/07 19:20:18;;;;;;;13.77;9.38;;;3.00;99.90;;;;;;4946813;29;20031;-89
2020/12/07 19:22:49;;;;;;;16.45;10.45;;;3.00;99.90;;;;;;4936211;29;20027;-88
2020/12/07 19:25:31;;;;;;;15.02;9.52;;;2.90;99.90;;;;;;4863430;29;20125;-89
2020/12/07 19:28:52;;;;;;;16.08;9.40;;;2.90;99.90;;;;;;4879235;29;20040;-89
2020/12/07 19:33:58;;;;;;;16.90;11.02;;;2.90;99.90;;;;;;5018863;23;20059;-90
2020/12/07 19:40:18;;;;;;;14.15;9.27;;;2.80;99.90;;;;;;5095664;23;20074;-86
2020/12/07 19:42:44;;;;;;;14.32;8.48;;;2.90;99.90;;;;;;4928781;29;20105;-88
2020/12/07 19:45:13;;;;;;;16.50;8.57;;;2.90;99.90;;;;;;4937797;29;20028;-90
2020/12/07 19:47:41;;;;;;;15.77;10.65;;;3.00;99.90;;;;;;4928113;29;20053;-89
2020/12/07 19:50:48;;;;;;;12.15;8.68;;;3.00;99.90;;;;;;4942379;29;20031;-93
2020/12/07 19:53:26;;;;;;;15.05;9.98;;;3.00;99.90;;;;;;4886966;29;20085;-88
2020/12/07 19:56:25;;;;;;;15.85;10.63;;;2.90;99.90;;;;;;4875520;29;20093;-89
2020/12/07 19:59:09;;;;;;;13.63;9.55;;;2.90;99.90;;;;;;4810006;29;20043;-86
2020/12/07 20:02:00;;;;;;;13.93;9.18;;;3.00;99.90;;;;;;4807446;29;20387;-87
2020/12/07 20:04:53;;;;;;;18.95;10.27;;;2.90;99.90;;;;;;4810518;29;20042;-87
2020/12/07 20:07:22;;;;;;;16.52;10.25;;;2.90;99.90;;;;;;4804243;29;20041;-85
2020/12/07 20:09:48;;;;;;;13.57;9.63;;;2.90;99.90;;;;;;4810052;29;20126;-84
2020/12/07 20:12:39;;;;;;;14.68;8.90;;;2.90;99.90;;;;;;4812210;29;20056;-93
2020/12/07 20:15:42;;;;;;;15.45;9.82;;;2.80;99.90;;;;;;4811338;29;20031;-89
2020/12/07 20:18:09;;;;;;;21.25;10.95;;;2.80;99.90;;;;;;4810210;29;20401;-92
2020/12/07 20:28:21;;;;;;;20.17;11.45;;;2.70;99.90;;;;;;4933331;29;20044;-92
2020/12/07 20:31:05;;;;;;;17.38;9.50;;;2.70;99.90;;;;;;4934888;29;20024;-91
2020/12/07 20:41:39;;;;;;;;;;;;;;;;;;;;;
2020/12/07 20:47:54;;;;;;;15.93;9.98;;;2.60;99.90;;;;;;5187137;23;20065;-92
2020/12/07 20:50:57;;;;;;;16.33;9.82;;;2.60;99.90;;;;;;4972095;28;20074;-93
2020/12/07 20:53:25;;;;;;;15.93;9.98;;;2.70;99.90;;;;;;4939201;28;20045;-94
2020/12/07 20:56:18;;;;;;;18.20;10.65;;;2.60;99.90;;;;;;4960695;29;20019;-93
2020/12/07 20:59:15;;;;;;;;;;;;;;;;;;;;;
2020/12/07 21:04:26;;;;;;;19.60;12.25;;;2.50;99.90;;;;;;5732726;23;20048;-93
2020/12/07 21:32:38;;;;;;;24.05;12.90;;;2.70;99.90;;;;;;3451052;23;20329;31
2020/12/07 21:35:37;;;;;;;21.75;12.93;;;2.60;99.90;;;;;;4933050;29;20071;-91
2020/12/07 21:38:23;;;;;;;21.20;12.55;;;2.70;99.90;;;;;;4888713;29;20101;-92
2020/12/07 21:41:05;;;;;;;25.65;12.55;;;2.60;99.90;;;;;;4888359;29;20033;-91
2020/12/07 21:43:33;;;;;;;25.45;13.35;;;2.60;99.90;;;;;;4879349;29;20081;-91
2020/12/07 21:46:05;;;;;;;21.20;12.90;;;2.50;99.90;;;;;;4891288;29;20056;-92
2020/12/07 21:56:31;;;;;;;24.60;12.85;;;2.70;99.90;;;;;;3479395;23;20330;-93
2020/12/07 21:59:12;;;;;;;22.50;13.05;;;2.70;99.90;;;;;;4944736;29;20026;-91
2020/12/07 22:06:47;;;;;;;25.20;13.73;;;2.50;99.90;;;;;;4969254;29;20055;-91
2020/12/07 22:09:20;;;;;;;23.88;14.02;;;2.40;99.90;;;;;;5059589;23;20044;-91
2020/12/07 22:11:47;;;;;;;22.27;12.60;;;2.30;99.90;;;;;;4935230;29;20027;-92
2020/12/07 22:14:31;;;;;;;20.60;13.43;;;2.30;99.90;;;;;;4918889;29;20056;-90
2020/12/07 22:17:09;;;;;;;21.63;12.27;;;2.30;99.90;;;;;;4946835;28;20020;-92
2020/12/07 22:19:40;;;;;;;21.50;12.68;;;2.30;99.90;;;;;;4991971;23;20043;-93
2020/12/07 22:22:24;;;;;;;22.05;12.82;;;2.20;99.90;;;;;;4979332;28;20110;-91
2020/12/07 22:24:53;;;;;;;22.92;13.93;;;2.10;99.90;;;;;;4983770;28;20112;-91
2020/12/07 22:27:29;;;;;;;21.40;12.73;;;2.00;99.90;;;;;;4975978;28;20019;-91
2020/12/07 22:30:08;;;;;;;22.50;13.45;;;1.90;99.90;;;;;;4978941;28;20421;-92
2020/12/07 22:32:37;;;;;;;20.88;13.55;;;2.00;99.90;;;;;;4978102;28;20031;-91
2020/12/07 22:35:10;;;;;;;25.13;13.35;;;1.90;99.90;;;;;;4972803;28;20020;-93
2020/12/07 22:37:50;;;;;;;19.23;12.50;;;1.90;99.90;;;;;;4973812;28;20039;-91
2020/12/07 22:40:20;;;;;;;20.83;12.98;;;2.00;99.90;;;;;;4977875;28;20040;-92
2020/12/07 22:42:49;;;;;;;20.20;12.15;;;2.00;99.90;;;;;;4975938;28;20083;-92
2020/12/07 22:45:23;;;;;;;22.40;13.27;;;2.00;99.90;;;;;;4984421;28;20011;-92
2020/12/07 22:47:52;;;;;;;22.17;12.40;;;1.90;99.90;;;;;;4979468;28;20030;-92
2020/12/07 22:50:23;;;;;;;20.15;13.18;;;1.80;99.90;;;;;;4975918;28;20019;-93
2020/12/07 22:53:02;;;;;;;23.17;12.50;;;1.90;99.90;;;;;;4975882;28;20051;-91
2020/12/07 22:55:55;;;;;;;23.15;12.75;;;1.90;99.90;;;;;;4970084;28;20255;-92
2020/12/07 22:58:35;;;;;;;22.67;13.10;;;1.80;99.90;;;;;;5027207;23;20072;-91
2020/12/07 23:01:01;;;;;;;23.83;13.52;;;1.80;99.90;;;;;;4957333;29;20074;-92
2020/12/07 23:03:27;;;;;;;20.48;12.27;;;1.80;99.90;;;;;;4929336;29;20150;-93
2020/12/07 23:05:57;;;;;;;24.15;13.63;;;1.80;99.90;;;;;;4941945;29;20055;-90
2020/12/07 23:08:25;;;;;;;23.27;13.13;;;1.80;99.90;;;;;;4965350;29;20027;-92
2020/12/07 23:10:53;;;;;;;24.20;13.25;;;1.70;99.90;;;;;;4945184;29;20149;-90
2020/12/07 23:13:21;;;;;;;24.05;13.43;;;1.80;99.90;;;;;;4956804;28;20453;-91
2020/12/07 23:15:47;;;;;;;25.60;13.95;;;1.70;99.90;;;;;;5031622;23;20128;-92
2020/12/07 23:18:12;;;;;;;27.70;14.38;;;1.60;99.90;;;;;;4965205;28;20094;-91
2020/12/07 23:20:41;;;;;;;24.35;13.02;;;1.60;99.90;;;;;;4955154;29;20150;-94
2020/12/07 23:23:08;;;;;;;22.88;13.93;;;1.40;99.90;;;;;;4958160;29;20047;-91
2020/12/07 23:25:34;;;;;;;31.67;15.25;;;1.30;99.90;;;;;;4956392;28;20027;-91
2020/12/07 23:28:00;;;;;;;29.35;15.85;;;1.30;99.90;;;;;;4971989;28;20030;-94
2020/12/07 23:30:27;;;;;;;25.80;15.48;;;1.30;99.90;;;;;;4954932;28;20034;-94
2020/12/07 23:32:53;;;;;;;25.75;14.27;;;1.40;99.90;;;;;;4947424;28;20583;-91
2020/12/07 23:35:21;;;;;;;27.10;15.00;;;1.40;99.90;;;;;;4980397;28;20035;-91
2020/12/07 23:37:48;;;;;;;26.20;14.63;;;1.50;99.90;;;;;;4954722;29;20046;-92
2020/12/07 23:40:15;;;;;;;29.52;14.98;;;1.50;99.90;;;;;;4950546;28;20496;-92
2020/12/07 23:42:41;;;;;;;23.23;14.05;;;1.60;99.90;;;;;;4946684;28;20082;-91
2020/12/07 23:45:15;;;;;;;23.55;14.73;;;1.70;99.90;;;;;;4962736;28;20030;-92
2020/12/07 23:47:44;;;;;;;24.30;13.43;;;1.80;99.90;;;;;;4941190;29;20036;-92
2020/12/07 23:50:16;;;;;;;25.25;14.00;;;1.80;99.90;;;;;;4935088;29;20152;-91
2020/12/07 23:52:47;;;;;;;24.83;14.38;;;1.80;99.90;;;;;;4924443;29;20063;-92
2020/12/07 23:55:14;;;;;;;23.83;13.47;;;1.70;99.90;;;;;;4913860;29;20083;-91
2020/12/07 23:57:40;;;;;;;25.73;15.10;;;1.80;99.90;;;;;;4909109;29;20032;-92
